Time;durP1;ratioP1;P1;durP2;ratioP2;P2;SDS_P1;SDS_P2;PMS_P1;PMS_P2;Temp;Humidity;BMP_temperature;BMP_pressure;BME280_temperature;BME280_humidity;BME280_pressure;Samples;Min_cycle;Max_cycle;Signal;HPM_P1;HPM_P2
2022/07/01 00:01:23;;;;;;;2.00;0.90;;;15.40;99.90;;;;;;5054355;28;20120;-79
2022/07/01 00:03:49;;;;;;;2.13;0.80;;;15.40;99.90;;;;;;5073984;28;20032;-80
2022/07/01 00:06:16;;;;;;;3.42;1.10;;;15.40;99.90;;;;;;5046476;28;20033;-80
2022/07/01 00:08:42;;;;;;;3.42;1.35;;;15.40;99.90;;;;;;5020903;28;20064;-80
2022/07/01 00:11:08;;;;;;;2.50;0.93;;;15.40;99.90;;;;;;5031484;28;20121;-80
2022/07/01 00:13:35;;;;;;;1.67;0.80;;;15.40;99.90;;;;;;5071187;28;20123;-80
2022/07/01 00:16:00;;;;;;;1.73;0.50;;;15.30;99.90;;;;;;5065898;28;20038;-81
2022/07/01 00:18:26;;;;;;;1.38;0.70;;;15.40;99.90;;;;;;5036053;28;20037;-80
2022/07/01 00:20:52;;;;;;;2.70;0.57;;;15.50;99.90;;;;;;5067937;28;20044;-80
2022/07/01 00:23:18;;;;;;;4.15;1.10;;;15.50;99.90;;;;;;5031109;28;20138;-79
2022/07/01 00:25:45;;;;;;;1.95;0.52;;;15.40;99.90;;;;;;5039120;28;20037;-80
2022/07/01 00:28:10;;;;;;;1.42;0.40;;;15.50;99.90;;;;;;5053247;28;20051;-79
2022/07/01 00:30:37;;;;;;;4.07;0.60;;;15.30;99.90;;;;;;5038866;28;20036;-79
2022/07/01 00:33:03;;;;;;;5.35;0.88;;;15.50;99.90;;;;;;5055968;28;20051;-80
2022/07/01 00:35:29;;;;;;;0.80;0.80;;;15.50;99.90;;;;;;5073020;28;20029;-79
2022/07/01 00:37:54;;;;;;;2.80;0.80;;;15.50;99.90;;;;;;5048092;28;20037;-79
2022/07/01 00:40:20;;;;;;;1.80;0.60;;;15.50;99.90;;;;;;5071716;28;20533;-79
2022/07/01 00:42:46;;;;;;;1.92;0.90;;;15.50;99.90;;;;;;5032182;28;20510;-79
2022/07/01 00:45:12;;;;;;;0.63;0.40;;;15.60;99.90;;;;;;5038880;28;20060;-79
2022/07/01 00:47:40;;;;;;;0.85;0.65;;;15.50;99.90;;;;;;5073077;28;20040;-79
2022/07/01 00:50:11;;;;;;;1.00;0.60;;;15.50;99.90;;;;;;5050213;28;20135;-79
2022/07/01 00:52:38;;;;;;;2.90;0.45;;;15.60;99.90;;;;;;5044608;28;20036;-80
2022/07/01 00:55:06;;;;;;;0.65;0.47;;;15.50;99.90;;;;;;5029182;28;20064;-79
2022/07/01 00:57:34;;;;;;;1.35;0.40;;;15.50;99.90;;;;;;5046650;28;20453;-79
2022/07/01 01:00:05;;;;;;;1.17;0.47;;;15.50;99.90;;;;;;5029793;28;20383;-80
2022/07/01 01:02:31;;;;;;;2.25;0.50;;;15.40;99.90;;;;;;5027693;28;20476;-79
2022/07/01 01:04:57;;;;;;;1.38;0.65;;;15.40;99.90;;;;;;5046852;28;20087;-80
2022/07/01 01:07:23;;;;;;;3.83;0.70;;;15.40;99.90;;;;;;5049643;28;20063;-79
2022/07/01 01:09:49;;;;;;;3.22;0.63;;;15.40;99.90;;;;;;5066690;28;20055;-81
2022/07/01 01:12:14;;;;;;;1.20;0.60;;;15.40;99.90;;;;;;5074383;28;20072;-80
2022/07/01 01:14:45;;;;;;;1.23;0.60;;;15.40;99.90;;;;;;5065837;28;20036;-81
2022/07/01 01:17:12;;;;;;;1.63;0.52;;;15.40;99.90;;;;;;5036692;28;20153;-81
2022/07/01 01:19:38;;;;;;;3.03;0.80;;;15.40;99.90;;;;;;5050703;28;20044;-81
2022/07/01 01:22:03;;;;;;;2.08;0.75;;;15.40;99.90;;;;;;5051855;28;20040;-81
2022/07/01 01:24:29;;;;;;;0.73;0.70;;;15.50;99.90;;;;;;5041546;28;20041;-81
2022/07/01 01:26:56;;;;;;;2.40;0.90;;;15.50;99.90;;;;;;5066289;28;20399;-80
2022/07/01 01:29:21;;;;;;;1.38;0.60;;;15.50;99.90;;;;;;5067737;28;20037;-81
2022/07/01 01:31:47;;;;;;;1.40;0.90;;;15.50;99.90;;;;;;5043907;28;20428;-81
2022/07/01 01:34:13;;;;;;;0.77;0.70;;;15.50;99.90;;;;;;5068378;28;20044;-81
2022/07/01 01:36:38;;;;;;;0.85;0.65;;;15.50;99.90;;;;;;5041098;28;20102;-81
2022/07/01 01:41:32;;;;;;;1.60;1.17;;;15.50;99.90;;;;;;5060904;28;20037;-81
2022/07/01 01:43:58;;;;;;;1.92;1.38;;;15.60;99.90;;;;;;5064444;28;20121;-81
2022/07/01 01:46:24;;;;;;;1.63;1.38;;;15.50;99.90;;;;;;5052080;28;20422;-81
2022/07/01 01:48:49;;;;;;;4.97;2.30;;;15.40;99.90;;;;;;5071201;28;20047;-80
2022/07/01 01:51:15;;;;;;;7.50;5.45;;;15.50;99.90;;;;;;5066849;28;20036;-81
2022/07/01 01:53:40;;;;;;;13.15;8.38;;;15.50;99.90;;;;;;5036746;28;20120;-81
2022/07/01 01:56:06;;;;;;;19.83;11.63;;;15.50;99.90;;;;;;5070038;28;20372;-81
2022/07/01 01:58:32;;;;;;;19.42;12.68;;;15.40;99.90;;;;;;5061435;28;20047;-80
2022/07/01 02:00:57;;;;;;;24.52;12.32;;;15.50;99.90;;;;;;5068302;28;20040;-80
2022/07/01 02:03:23;;;;;;;18.73;11.50;;;15.40;99.90;;;;;;5053290;28;20044;-77
2022/07/01 02:05:50;;;;;;;17.10;10.32;;;15.40;99.90;;;;;;5071335;28;20049;-78
2022/07/01 02:08:15;;;;;;;17.23;10.48;;;15.40;99.90;;;;;;5053231;28;20101;-79
2022/07/01 02:10:41;;;;;;;16.52;10.07;;;15.30;99.90;;;;;;5036191;28;20120;-80
2022/07/01 02:13:06;;;;;;;18.02;10.52;;;15.40;99.90;;;;;;5052945;28;20044;-79
2022/07/01 02:15:32;;;;;;;15.57;8.32;;;15.40;99.90;;;;;;5036087;28;20633;-80
2022/07/01 02:17:58;;;;;;;15.82;9.10;;;15.40;99.90;;;;;;5053020;28;20067;-78
2022/07/01 02:20:23;;;;;;;14.05;7.88;;;15.30;99.90;;;;;;5038469;28;20040;-78
2022/07/01 02:22:49;;;;;;;13.30;7.88;;;15.40;99.90;;;;;;5056642;28;20055;-79
2022/07/01 02:25:15;;;;;;;14.57;8.18;;;15.40;99.90;;;;;;5032074;28;20400;-79
2022/07/01 02:27:40;;;;;;;12.45;7.80;;;15.40;99.90;;;;;;5040284;28;20141;-80
2022/07/01 02:30:07;;;;;;;13.95;7.82;;;15.30;99.90;;;;;;5047651;28;20041;-79
2022/07/01 02:32:32;;;;;;;15.00;8.00;;;15.30;99.90;;;;;;5070481;28;20051;-81
2022/07/01 02:34:58;;;;;;;14.77;7.70;;;15.30;99.90;;;;;;5046242;28;20052;-79
2022/07/01 02:37:24;;;;;;;10.75;7.05;;;15.30;99.90;;;;;;5036904;28;20029;-79
2022/07/01 02:39:49;;;;;;;10.52;6.78;;;15.10;99.90;;;;;;5043560;28;20032;-78
2022/07/01 02:42:25;;;;;;;13.02;7.47;;;15.20;99.90;;;;;;5022900;28;20476;-80
2022/07/01 02:44:52;;;;;;;14.25;7.65;;;15.20;99.90;;;;;;5069960;28;20044;-79
2022/07/01 02:47:20;;;;;;;13.07;7.68;;;15.10;99.90;;;;;;5044237;28;20044;-79
2022/07/01 02:49:46;;;;;;;12.25;6.32;;;15.00;99.90;;;;;;5056649;28;20044;-79
2022/07/01 02:52:12;;;;;;;10.77;6.57;;;15.00;99.90;;;;;;5039865;28;20457;-78
2022/07/01 02:54:38;;;;;;;12.38;7.03;;;14.90;99.90;;;;;;5056398;28;20446;-79
2022/07/01 02:57:04;;;;;;;11.35;5.93;;;14.80;99.90;;;;;;5056718;28;20032;-79
2022/07/01 02:59:29;;;;;;;9.50;5.63;;;14.90;99.90;;;;;;5056289;28;20032;-83
2022/07/01 03:01:55;;;;;;;12.48;6.05;;;14.80;99.90;;;;;;5039844;28;20042;-78
2022/07/01 03:04:21;;;;;;;11.93;6.30;;;14.80;99.90;;;;;;5040042;28;20067;-78
2022/07/01 03:06:46;;;;;;;10.38;6.45;;;14.80;99.90;;;;;;5056468;28;20044;-78
2022/07/01 03:09:12;;;;;;;9.18;6.13;;;14.80;99.90;;;;;;5056552;28;20457;-79
2022/07/01 03:11:37;;;;;;;11.60;6.93;;;14.80;99.90;;;;;;5056026;28;20041;-78
2022/07/01 03:14:03;;;;;;;12.35;7.25;;;14.90;99.90;;;;;;5056635;28;20047;-79
2022/07/01 03:16:29;;;;;;;8.95;6.47;;;14.80;99.90;;;;;;5039516;28;20039;-79
2022/07/01 03:18:54;;;;;;;13.80;7.38;;;14.80;99.90;;;;;;5039866;28;20044;-78
2022/07/01 03:21:20;;;;;;;14.80;8.10;;;14.80;99.90;;;;;;5039526;28;20179;-81
2022/07/01 03:23:45;;;;;;;17.67;8.88;;;14.80;99.90;;;;;;5057003;28;20183;-79
2022/07/01 03:26:11;;;;;;;19.10;9.20;;;14.80;99.90;;;;;;5056584;28;20127;-78
2022/07/01 03:28:37;;;;;;;16.60;9.43;;;14.90;99.90;;;;;;5056570;28;20079;-79
2022/07/01 03:31:02;;;;;;;20.58;11.40;;;14.80;99.90;;;;;;5056298;28;20048;-79
2022/07/01 03:33:28;;;;;;;22.17;11.32;;;14.90;99.90;;;;;;5038610;28;20047;-78
2022/07/01 03:35:53;;;;;;;18.25;10.90;;;14.80;99.90;;;;;;5039459;28;20475;-78
2022/07/01 03:38:19;;;;;;;23.92;12.45;;;14.80;99.90;;;;;;5056080;28;20032;-78
2022/07/01 03:40:45;;;;;;;21.45;12.30;;;14.80;99.90;;;;;;5039420;28;20036;-81
2022/07/01 03:43:11;;;;;;;21.63;13.05;;;14.70;99.90;;;;;;5055880;28;20123;-79
2022/07/01 03:45:36;;;;;;;20.30;11.93;;;14.80;99.90;;;;;;5055926;28;20071;-79
2022/07/01 03:48:02;;;;;;;20.05;12.32;;;14.70;99.90;;;;;;5039229;28;20080;-78
2022/07/01 03:50:28;;;;;;;23.67;14.15;;;14.70;99.90;;;;;;5039668;28;20037;-79
2022/07/01 03:55:39;;;;;;;21.25;12.75;;;14.70;99.90;;;;;;5056393;28;20044;-78
2022/07/01 03:58:05;;;;;;;21.27;13.32;;;14.80;99.90;;;;;;5056245;28;20028;-79
2022/07/01 04:00:35;;;;;;;23.80;13.73;;;14.80;99.90;;;;;;5055752;28;20123;-79
2022/07/01 04:03:01;;;;;;;29.25;14.25;;;14.70;99.90;;;;;;5039423;28;20040;-79
2022/07/01 04:05:27;;;;;;;27.65;14.32;;;14.70;99.90;;;;;;5055855;28;20072;-78
2022/07/01 04:07:53;;;;;;;24.58;13.25;;;14.70;99.90;;;;;;5039179;28;20490;-79
2022/07/01 04:10:19;;;;;;;25.50;14.40;;;14.70;99.90;;;;;;5038508;28;20041;-79
2022/07/01 04:12:44;;;;;;;28.77;14.90;;;14.80;99.90;;;;;;5055270;28;20161;-78
2022/07/01 04:15:10;;;;;;;25.48;13.88;;;14.70;99.90;;;;;;5038924;28;20119;-79
2022/07/01 04:17:36;;;;;;;26.10;14.48;;;14.70;99.90;;;;;;5038108;28;20033;-79
2022/07/01 04:20:02;;;;;;;24.25;13.82;;;14.80;99.90;;;;;;5072743;28;20028;-79
2022/07/01 04:22:35;;;;;;;27.67;14.07;;;14.80;99.90;;;;;;5054435;28;20037;-80
2022/07/01 04:25:03;;;;;;;26.33;15.00;;;14.80;99.90;;;;;;5054629;28;20048;-78
2022/07/01 04:27:30;;;;;;;27.55;14.63;;;14.70;99.90;;;;;;5054800;28;20041;-79
2022/07/01 04:29:56;;;;;;;25.20;14.05;;;14.80;99.90;;;;;;5038032;28;20063;-78
2022/07/01 04:32:22;;;;;;;29.00;14.10;;;14.70;99.90;;;;;;5039595;28;20122;-82
2022/07/01 04:34:48;;;;;;;28.05;15.18;;;14.70;99.90;;;;;;5075036;28;20040;-80
2022/07/01 04:37:13;;;;;;;27.63;15.20;;;14.70;99.90;;;;;;5074768;28;20063;-80
2022/07/01 04:39:39;;;;;;;28.27;14.57;;;14.70;99.90;;;;;;5045635;28;20097;-81
2022/07/01 04:42:05;;;;;;;28.08;15.75;;;14.80;99.90;;;;;;5038680;28;20072;-81
2022/07/01 04:44:36;;;;;;;33.28;16.27;;;14.70;99.90;;;;;;5054594;28;20064;-81
2022/07/01 04:47:03;;;;;;;26.30;16.27;;;14.70;99.90;;;;;;5054603;28;20090;-81
2022/07/01 04:49:29;;;;;;;27.00;15.10;;;14.80;99.90;;;;;;5038069;28;20047;-81
2022/07/01 04:51:56;;;;;;;26.65;15.73;;;14.80;99.90;;;;;;5072977;28;20044;-80
2022/07/01 04:54:22;;;;;;;29.08;16.00;;;14.80;99.90;;;;;;5054904;28;20059;-82
2022/07/01 04:56:48;;;;;;;30.70;17.58;;;14.80;99.90;;;;;;5072690;28;20047;-82
2022/07/01 04:59:15;;;;;;;30.55;18.13;;;14.80;99.90;;;;;;5054363;28;20051;-81
2022/07/01 05:01:44;;;;;;;31.15;17.75;;;14.80;99.90;;;;;;5054356;28;20361;-81
2022/07/01 05:04:11;;;;;;;27.95;17.45;;;14.80;99.90;;;;;;5072286;28;20055;-81
2022/07/01 05:06:37;;;;;;;31.30;16.83;;;14.80;99.90;;;;;;5054041;28;20055;-81
2022/07/01 05:09:03;;;;;;;27.70;16.40;;;14.80;99.90;;;;;;5053819;28;20440;-82
2022/07/01 05:11:29;;;;;;;29.77;16.67;;;14.80;99.90;;;;;;5053276;28;20089;-77
2022/07/01 05:13:54;;;;;;;31.95;17.13;;;14.90;99.90;;;;;;5071195;28;20045;-77
2022/07/01 05:16:20;;;;;;;31.33;18.13;;;14.90;99.90;;;;;;5054198;28;20040;-81
2022/07/01 05:24:14;;;;;;;31.58;16.67;;;15.00;99.90;;;;;;5054241;28;20115;-81
2022/07/01 05:26:40;;;;;;;32.88;17.42;;;15.00;99.90;;;;;;5038567;28;20084;-81
2022/07/01 05:29:06;;;;;;;30.65;17.40;;;15.00;99.90;;;;;;5038204;28;20044;-81
2022/07/01 05:31:31;;;;;;;30.27;17.02;;;14.90;99.90;;;;;;5038129;28;20082;-80
2022/07/01 05:33:57;;;;;;;30.00;17.35;;;14.90;99.90;;;;;;5039386;28;20040;-80
2022/07/01 05:36:22;;;;;;;29.95;17.42;;;14.90;99.90;;;;;;5038317;28;20400;-81
2022/07/01 05:38:48;;;;;;;28.92;16.63;;;14.90;99.90;;;;;;5037860;28;20120;-78
2022/07/01 05:41:14;;;;;;;29.77;16.90;;;15.00;99.90;;;;;;5046522;28;20036;-81
2022/07/01 05:43:39;;;;;;;34.30;18.52;;;15.00;99.90;;;;;;5037834;28;20098;-81
2022/07/01 05:46:05;;;;;;;30.42;18.42;;;15.00;99.90;;;;;;5054890;28;20067;-81
2022/07/01 05:48:31;;;;;;;26.40;16.10;;;15.00;99.90;;;;;;5054127;28;20036;-81
2022/07/01 05:50:56;;;;;;;29.98;16.77;;;15.10;99.90;;;;;;5037312;28;20408;-81
2022/07/01 05:53:22;;;;;;;29.58;16.73;;;15.00;99.90;;;;;;5072040;28;20056;-81
2022/07/01 05:55:48;;;;;;;29.13;16.80;;;15.00;99.90;;;;;;5053866;28;20032;-81
2022/07/01 05:58:14;;;;;;;29.98;16.42;;;15.10;99.90;;;;;;5054068;28;20040;-82
2022/07/01 06:00:43;;;;;;;28.88;16.63;;;15.10;99.90;;;;;;5030610;28;20106;-81
2022/07/01 06:03:14;;;;;;;29.10;17.23;;;15.10;99.90;;;;;;5042640;28;20495;-81
2022/07/01 06:05:41;;;;;;;30.42;17.65;;;15.10;99.90;;;;;;5053578;28;20488;-81
2022/07/01 06:08:06;;;;;;;27.65;16.20;;;15.20;99.90;;;;;;5053424;28;20036;-81
2022/07/01 06:10:33;;;;;;;37.25;18.83;;;15.20;99.90;;;;;;5071770;28;20127;-82
2022/07/01 06:12:59;;;;;;;36.72;18.38;;;15.20;99.90;;;;;;5043139;28;20059;-82
2022/07/01 06:15:25;;;;;;;28.83;16.75;;;15.20;99.90;;;;;;5049370;28;20045;-82
2022/07/01 06:17:51;;;;;;;31.85;17.25;;;15.20;99.90;;;;;;5049908;28;20072;-82
2022/07/01 06:20:18;;;;;;;28.40;17.17;;;15.30;99.90;;;;;;5016827;28;20029;-82
2022/07/01 06:22:43;;;;;;;31.75;17.65;;;15.30;99.90;;;;;;5044802;28;20029;-82
2022/07/01 06:25:09;;;;;;;30.77;18.58;;;15.40;99.90;;;;;;5036399;28;20480;-82
2022/07/01 06:27:41;;;;;;;27.00;17.85;;;15.30;99.90;;;;;;5032926;28;20036;-81
2022/07/01 06:30:08;;;;;;;30.63;17.40;;;15.40;99.90;;;;;;5054578;28;20530;-81
2022/07/01 06:32:34;;;;;;;28.33;17.25;;;15.50;99.90;;;;;;5053775;28;20517;-81
2022/07/01 06:34:59;;;;;;;28.80;17.98;;;15.50;99.90;;;;;;5054268;28;20124;-81
2022/07/01 06:37:25;;;;;;;28.90;16.70;;;15.50;99.90;;;;;;5035064;28;20045;-82
2022/07/01 06:39:51;;;;;;;30.35;17.33;;;15.50;99.90;;;;;;5054354;28;20037;-81
2022/07/01 06:42:16;;;;;;;29.98;17.13;;;15.50;99.90;;;;;;5041428;28;20462;-81
2022/07/01 06:44:42;;;;;;;27.25;16.58;;;15.50;99.90;;;;;;5047092;28;20052;-82
2022/07/01 06:47:08;;;;;;;29.63;17.98;;;15.40;99.90;;;;;;5053326;28;20517;-82
2022/07/01 06:49:34;;;;;;;31.00;17.80;;;15.50;99.90;;;;;;5038819;28;20040;-82
2022/07/01 06:51:59;;;;;;;30.77;17.35;;;15.60;99.90;;;;;;5052980;28;20085;-82
2022/07/01 06:54:25;;;;;;;28.60;16.90;;;15.70;99.90;;;;;;5040922;28;20118;-82
2022/07/01 06:56:51;;;;;;;34.70;17.02;;;15.70;99.90;;;;;;5037693;28;20115;-81
2022/07/01 06:59:16;;;;;;;25.45;17.20;;;15.70;99.90;;;;;;5052678;28;20526;-82
2022/07/01 07:01:42;;;;;;;27.05;16.67;;;15.80;99.90;;;;;;5053457;28;20036;-81
2022/07/01 07:04:08;;;;;;;32.05;17.50;;;15.80;99.90;;;;;;5053690;28;20072;-81
2022/07/01 07:06:33;;;;;;;25.67;16.70;;;15.80;99.90;;;;;;5053529;28;20044;-81
2022/07/01 07:08:59;;;;;;;28.70;16.92;;;15.90;99.90;;;;;;5056907;28;20036;-81
2022/07/01 07:11:27;;;;;;;31.50;17.48;;;16.00;99.90;;;;;;5057177;28;20048;-81
2022/07/01 07:13:52;;;;;;;27.35;16.73;;;16.10;99.90;;;;;;5057106;28;20052;-82
2022/07/01 07:16:21;;;;;;;25.27;16.80;;;16.10;99.90;;;;;;5040640;28;20498;-81
2022/07/01 07:18:50;;;;;;;27.58;17.38;;;16.30;99.90;;;;;;5040158;28;20391;-81
2022/07/01 07:21:16;;;;;;;27.98;16.55;;;16.40;99.90;;;;;;5038298;28;20052;-81
2022/07/01 07:23:42;;;;;;;27.15;18.60;;;16.60;99.90;;;;;;5054918;28;20045;-82
2022/07/01 07:26:09;;;;;;;32.15;18.05;;;16.60;99.90;;;;;;5069415;28;20052;-81
2022/07/01 07:28:35;;;;;;;28.40;16.10;;;16.80;99.90;;;;;;5069891;28;20045;-82
2022/07/01 07:31:01;;;;;;;27.70;17.45;;;17.10;99.90;;;;;;5073506;28;20047;-82
2022/07/01 07:33:26;;;;;;;25.33;16.73;;;17.20;99.90;;;;;;5056921;28;20048;-82
2022/07/01 07:35:52;;;;;;;27.38;16.67;;;17.40;99.90;;;;;;5040033;28;20075;-82
2022/07/01 07:38:18;;;;;;;24.85;15.45;;;17.60;99.90;;;;;;5039908;28;20072;-82
2022/07/01 07:40:43;;;;;;;26.63;16.70;;;17.90;99.90;;;;;;5055097;28;20032;-82
2022/07/01 07:43:09;;;;;;;26.88;18.63;;;18.20;99.90;;;;;;5039479;28;20076;-81
2022/07/01 07:45:35;;;;;;;22.42;15.55;;;18.40;99.90;;;;;;5070812;28;20119;-77
2022/07/01 07:48:02;;;;;;;24.75;15.18;;;18.70;99.90;;;;;;5048044;28;20048;-82
2022/07/01 07:50:27;;;;;;;28.67;14.73;;;18.80;99.90;;;;;;5068617;28;20091;-82
2022/07/01 07:52:53;;;;;;;21.77;13.02;;;19.10;99.90;;;;;;5046137;28;20603;-81
2022/07/01 07:55:19;;;;;;;21.70;14.88;;;19.20;99.90;;;;;;5068502;28;20037;-82
2022/07/01 07:57:44;;;;;;;23.40;14.18;;;19.20;99.90;;;;;;5049164;28;20048;-82
2022/07/01 08:00:12;;;;;;;20.25;14.82;;;19.00;99.90;;;;;;5055737;28;20072;-82
2022/07/01 08:02:38;;;;;;;19.63;14.50;;;18.80;99.90;;;;;;5055584;28;20047;-81
2022/07/01 08:05:05;;;;;;;20.20;13.60;;;18.80;99.90;;;;;;5055834;28;20097;-83
2022/07/01 08:07:36;;;;;;;18.98;13.75;;;18.80;99.90;;;;;;5056164;28;20037;-82
2022/07/01 08:10:01;;;;;;;22.77;14.10;;;19.20;99.90;;;;;;5057602;28;20057;-81
2022/07/01 08:12:27;;;;;;;20.15;14.10;;;19.50;99.90;;;;;;5055724;28;20056;-82
2022/07/01 08:14:53;;;;;;;23.23;13.60;;;19.50;99.90;;;;;;5053994;28;20048;-82
2022/07/01 08:17:19;;;;;;;21.27;13.65;;;19.50;99.90;;;;;;5058580;28;20075;-82
2022/07/01 08:19:44;;;;;;;15.68;12.38;;;19.40;99.90;;;;;;5057278;28;20036;-82
2022/07/01 08:22:10;;;;;;;21.17;12.75;;;19.30;99.90;;;;;;5058231;28;20492;-82
2022/07/01 08:24:35;;;;;;;24.83;13.60;;;19.30;99.90;;;;;;5063866;28;20041;-83
2022/07/01 08:27:01;;;;;;;21.70;13.73;;;19.30;99.90;;;;;;5065691;28;20041;-82
2022/07/01 08:29:26;;;;;;;22.67;14.27;;;19.30;99.90;;;;;;5069457;28;20060;-82
2022/07/01 08:31:53;;;;;;;17.90;12.75;;;19.40;99.90;;;;;;5029533;28;20064;-83
2022/07/01 08:34:19;;;;;;;20.77;11.70;;;19.30;99.90;;;;;;5047455;28;20075;-83
2022/07/01 08:36:44;;;;;;;20.95;11.70;;;19.60;99.90;;;;;;5048813;28;20090;-83
2022/07/01 08:39:10;;;;;;;18.23;10.90;;;19.80;99.90;;;;;;5046104;28;20428;-83
2022/07/01 08:41:35;;;;;;;17.75;10.90;;;19.90;99.90;;;;;;5044076;28;20063;-84
2022/07/01 08:44:01;;;;;;;15.98;11.10;;;20.00;99.90;;;;;;5045297;28;20040;-83
2022/07/01 08:46:27;;;;;;;16.73;11.05;;;20.10;99.90;;;;;;5045035;28;20102;-83
2022/07/01 08:48:53;;;;;;;18.48;9.30;;;20.20;99.90;;;;;;5044772;28;20043;-83
2022/07/01 08:51:19;;;;;;;14.35;8.20;;;20.50;99.90;;;;;;5043825;28;20044;-82
2022/07/01 08:53:45;;;;;;;15.93;9.65;;;20.90;99.90;;;;;;5044881;28;20063;-83
2022/07/01 08:58:55;;;;;;;14.77;7.78;;;21.30;99.90;;;;;;5046976;28;20064;-82
2022/07/01 09:01:24;;;;;;;16.45;7.72;;;21.30;99.90;;;;;;5048054;28;20048;-82
2022/07/01 09:03:52;;;;;;;17.67;7.82;;;21.10;99.90;;;;;;5045862;28;20056;-83
2022/07/01 09:06:23;;;;;;;16.92;7.57;;;21.00;99.90;;;;;;5047943;28;20041;-83
2022/07/01 09:08:49;;;;;;;11.10;7.38;;;20.90;99.90;;;;;;5046282;28;20033;-83
2022/07/01 09:11:20;;;;;;;13.13;8.07;;;20.90;99.90;;;;;;5044607;28;20056;-82
2022/07/01 09:14:08;;;;;;;21.00;8.65;;;21.20;99.90;;;;;;5031911;28;20076;-81
2022/07/01 09:16:50;;;;;;;14.68;7.45;;;21.40;99.90;;;;;;5028683;28;20024;-83
2022/07/01 09:19:18;;;;;;;13.57;8.27;;;21.20;99.90;;;;;;5038659;28;20044;-83
2022/07/01 09:21:51;;;;;;;13.82;7.30;;;21.00;99.90;;;;;;5043929;28;20036;-83
2022/07/01 09:24:27;;;;;;;10.68;6.70;;;21.10;99.90;;;;;;5058501;28;20037;-84
2022/07/01 09:26:59;;;;;;;9.05;5.90;;;21.20;99.90;;;;;;5044674;28;20048;-83
2022/07/01 09:29:33;;;;;;;12.68;5.53;;;21.50;99.90;;;;;;5031502;28;20044;-83
2022/07/01 09:32:02;;;;;;;11.60;5.35;;;21.80;99.90;;;;;;5044509;28;20119;-82
2022/07/01 09:34:32;;;;;;;8.77;5.05;;;22.10;99.90;;;;;;5032181;28;20048;-83
2022/07/01 09:36:58;;;;;;;5.75;4.40;;;22.20;99.90;;;;;;5047202;28;20516;-83
2022/07/01 09:39:24;;;;;;;9.68;5.05;;;22.30;99.90;;;;;;5047059;28;20033;-78
2022/07/01 09:41:53;;;;;;;7.30;4.30;;;22.30;99.90;;;;;;5044962;28;20491;-79
2022/07/01 09:44:18;;;;;;;5.70;4.35;;;22.40;99.90;;;;;;5061971;28;20068;-79
2022/07/01 09:46:57;;;;;;;11.00;5.00;;;22.30;99.90;;;;;;5050737;28;20145;-78
2022/07/01 09:49:24;;;;;;;9.20;4.63;;;22.10;99.90;;;;;;5051258;28;20053;-78
2022/07/01 09:51:51;;;;;;;7.80;4.47;;;22.30;99.90;;;;;;5050401;28;20032;-78
2022/07/01 09:54:17;;;;;;;9.05;4.43;;;22.60;99.90;;;;;;5049541;28;20093;-82
2022/07/01 09:56:43;;;;;;;6.28;3.72;;;22.90;99.90;;;;;;5054462;28;20036;-82
2022/07/01 09:59:09;;;;;;;5.47;3.58;;;23.00;99.90;;;;;;5056648;28;20565;-82
2022/07/01 10:01:37;;;;;;;5.53;3.35;;;23.10;99.90;;;;;;5057560;28;20510;-81
2022/07/01 10:04:06;;;;;;;5.13;3.40;;;23.10;99.90;;;;;;5057650;28;20048;-81
2022/07/01 10:07:00;;;;;;;5.75;3.60;;;23.30;99.90;;;;;;5056634;28;20044;-83
2022/07/01 10:10:03;;;;;;;6.25;3.65;;;23.40;99.90;;;;;;5061302;28;20044;-83
2022/07/01 10:12:37;;;;;;;4.85;3.35;;;23.40;99.90;;;;;;5037499;28;20044;-80
2022/07/01 10:15:06;;;;;;;4.65;3.30;;;23.40;99.90;;;;;;5041435;28;20128;-80
2022/07/01 10:17:44;;;;;;;6.35;2.80;;;23.60;99.90;;;;;;5052054;28;20041;-83
2022/07/01 10:20:24;;;;;;;3.80;2.85;;;23.80;99.90;;;;;;5052969;28;20041;-81
2022/07/01 10:22:59;;;;;;;9.00;2.88;;;23.90;99.90;;;;;;5050582;28;20124;-80
2022/07/01 10:25:51;;;;;;;7.45;3.10;;;23.90;99.90;;;;;;5035537;28;20692;-79
2022/07/01 10:28:27;;;;;;;5.07;2.55;;;24.10;99.90;;;;;;5053555;28;20051;-81
2022/07/01 10:31:01;;;;;;;5.72;2.33;;;24.20;99.90;;;;;;5068735;28;20044;-81
2022/07/01 10:33:49;;;;;;;3.00;2.33;;;24.10;99.90;;;;;;5051961;28;20041;-81
2022/07/01 10:36:31;;;;;;;5.57;2.05;;;23.80;99.90;;;;;;5052073;28;20036;-81
2022/07/01 10:39:00;;;;;;;5.32;2.15;;;23.50;99.90;;;;;;5038139;28;20569;-81
2022/07/01 10:41:49;;;;;;;7.28;1.83;;;23.30;99.90;;;;;;5050332;28;20048;-81
2022/07/01 10:44:15;;;;;;;3.25;2.33;;;23.40;99.90;;;;;;5039311;28;20052;-81
2022/07/01 10:46:45;;;;;;;6.25;2.42;;;23.40;99.90;;;;;;5058161;28;20045;-81
2022/07/01 10:49:41;;;;;;;5.75;1.70;;;23.50;99.90;;;;;;5057897;28;20040;-80
2022/07/01 10:52:15;;;;;;;4.63;1.77;;;23.70;99.90;;;;;;5044660;28;20045;-80
2022/07/01 10:54:42;;;;;;;6.30;1.70;;;23.90;99.90;;;;;;5040314;28;20131;-81
2022/07/01 10:59:45;;;;;;;4.78;1.83;;;23.50;99.90;;;;;;5055885;28;20044;-80
2022/07/01 11:02:15;;;;;;;3.75;2.00;;;23.30;99.90;;;;;;5055525;28;20090;-80
2022/07/01 11:04:41;;;;;;;9.07;2.33;;;23.30;99.90;;;;;;5045167;28;20086;-81
2022/07/01 11:07:08;;;;;;;3.63;1.65;;;23.20;99.90;;;;;;5053618;28;20501;-81
2022/07/01 11:09:34;;;;;;;4.13;1.38;;;23.30;99.90;;;;;;5040412;28;20127;-81
2022/07/01 11:12:01;;;;;;;9.13;1.63;;;23.40;99.90;;;;;;5047652;28;20047;-80
2022/07/01 11:14:27;;;;;;;2.88;1.33;;;23.70;99.90;;;;;;5051908;28;20041;-78
2022/07/01 11:16:55;;;;;;;6.40;1.50;;;24.00;99.90;;;;;;5060888;28;20411;-81
2022/07/01 11:19:20;;;;;;;4.13;1.20;;;23.80;99.90;;;;;;5057233;28;20045;-79
2022/07/01 11:21:49;;;;;;;6.80;1.65;;;23.60;99.90;;;;;;5055971;28;20514;-78
2022/07/01 11:24:17;;;;;;;8.07;1.65;;;23.60;99.90;;;;;;5048401;28;20127;-80
2022/07/01 11:26:43;;;;;;;1.38;1.05;;;23.70;99.90;;;;;;5049230;28;20059;-80
2022/07/01 11:29:13;;;;;;;5.53;2.40;;;23.90;99.90;;;;;;5068323;28;20036;-80
2022/07/01 11:31:39;;;;;;;3.85;1.10;;;23.70;99.90;;;;;;5057933;28;20500;-80
2022/07/01 11:34:05;;;;;;;5.90;1.67;;;23.40;99.90;;;;;;5056275;28;20094;-80
2022/07/01 11:39:23;;;;;;;7.32;1.40;;;22.80;99.90;;;;;;5055268;28;20040;-80
2022/07/01 11:42:00;;;;;;;4.95;1.40;;;22.60;99.90;;;;;;5047103;28;20119;-80
2022/07/01 11:44:33;;;;;;;6.93;1.17;;;22.40;99.90;;;;;;5055454;28;20040;-80
2022/07/01 11:47:00;;;;;;;4.35;1.40;;;22.40;99.90;;;;;;5056551;28;20087;-79
2022/07/01 11:49:26;;;;;;;4.15;1.35;;;22.50;99.90;;;;;;5050549;28;20044;-80
2022/07/01 11:52:04;;;;;;;4.00;1.50;;;22.50;99.90;;;;;;5075776;28;20041;-80
2022/07/01 11:54:34;;;;;;;4.43;1.38;;;22.60;99.90;;;;;;5057788;28;20047;-80
2022/07/01 11:57:12;;;;;;;4.10;0.90;;;22.70;99.90;;;;;;5056730;28;20075;-80
2022/07/01 11:59:39;;;;;;;2.92;0.60;;;23.10;99.90;;;;;;5055993;28;20044;-80
2022/07/01 12:02:05;;;;;;;3.58;0.80;;;23.30;99.90;;;;;;5047868;28;20115;-80
2022/07/01 12:04:31;;;;;;;2.25;0.50;;;23.50;99.90;;;;;;5036304;28;20064;-80
2022/07/01 12:06:58;;;;;;;3.00;1.02;;;23.60;99.80;;;;;;5051525;28;20041;-80
2022/07/01 12:09:25;;;;;;;3.65;1.20;;;23.40;97.70;;;;;;5049737;28;20071;-72
2022/07/01 12:11:51;;;;;;;4.40;0.82;;;23.20;99.40;;;;;;5063646;28;20032;-78
2022/07/01 12:14:31;;;;;;;4.35;1.05;;;22.80;99.90;;;;;;5053997;28;20127;-80
2022/07/01 12:16:59;;;;;;;5.57;0.93;;;22.50;99.90;;;;;;5054163;28;20036;-77
2022/07/01 12:19:29;;;;;;;2.30;0.85;;;22.30;99.90;;;;;;5070650;28;20122;-77
2022/07/01 12:21:58;;;;;;;3.20;1.05;;;22.20;99.90;;;;;;5053920;28;20044;-78
2022/07/01 12:24:24;;;;;;;6.85;1.10;;;22.10;99.90;;;;;;5053727;28;20045;-78
2022/07/01 12:26:57;;;;;;;3.70;1.38;;;22.00;99.90;;;;;;5054058;28;20388;-78
2022/07/01 12:29:23;;;;;;;2.38;0.70;;;22.00;99.90;;;;;;5054323;28;20526;-78
2022/07/01 12:32:01;;;;;;;3.90;0.77;;;22.10;99.90;;;;;;5054137;28;20384;-79
2022/07/01 12:34:39;;;;;;;1.45;0.60;;;22.40;99.90;;;;;;5053660;28;20045;-78
2022/07/01 12:37:09;;;;;;;4.05;1.20;;;22.60;99.90;;;;;;5053426;28;20037;-78
2022/07/01 12:39:42;;;;;;;2.08;0.73;;;22.60;98.90;;;;;;5071512;28;20407;-79
2022/07/01 12:42:08;;;;;;;3.33;1.10;;;22.50;99.90;;;;;;5053659;28;20070;-80
2022/07/01 12:44:43;;;;;;;5.45;1.13;;;22.20;99.90;;;;;;5054046;28;20044;-79
2022/07/01 12:47:30;;;;;;;1.83;0.80;;;21.90;99.90;;;;;;5054173;28;20049;-80
2022/07/01 12:50:25;;;;;;;4.28;1.25;;;21.70;99.90;;;;;;5047652;28;20498;-80
2022/07/01 12:53:04;;;;;;;4.90;1.15;;;21.60;99.90;;;;;;5048147;28;20044;-80
2022/07/01 12:55:42;;;;;;;9.15;1.35;;;21.60;99.90;;;;;;5037548;28;20041;-81
2022/07/01 12:58:17;;;;;;;3.92;1.52;;;21.70;99.90;;;;;;5032797;28;20082;-80